Time;durP1;ratioP1;P1;durP2;ratioP2;P2;SDS_P1;SDS_P2;PMS_P1;PMS_P2;Temp;Humidity;BMP_temperature;BMP_pressure;BME280_temperature;BME280_humidity;BME280_pressure;Samples;Min_cycle;Max_cycle;Signal;HPM_P1;HPM_P2
2023/08/14 00:00:07;;;;;;;7.40;5.67;;;;;;;;;;5044884;28;20468;-87
2023/08/14 00:02:33;;;;;;;6.00;5.20;;;;;;;;;;5018201;28;20435;-87
2023/08/14 00:05:00;;;;;;;9.37;6.40;;;;;;;;;;5049188;28;20442;-88
2023/08/14 00:07:28;;;;;;;6.03;5.43;;;;;;;;;;5044320;28;20447;-88
2023/08/14 00:09:54;;;;;;;8.50;5.30;;;;;;;;;;5043391;28;20532;-88
2023/08/14 00:12:20;;;;;;;7.27;6.10;;;;;;;;;;5058674;28;20520;-87
2023/08/14 00:14:47;;;;;;;9.33;6.83;;;;;;;;;;5042460;28;20472;-88
2023/08/14 00:17:13;;;;;;;9.13;5.40;;;;;;;;;;5042628;28;20814;-87
2023/08/14 00:19:39;;;;;;;6.97;5.90;;;;;;;;;;5039703;28;21328;-87
2023/08/14 00:22:05;;;;;;;6.23;5.63;;;;;;;;;;5030592;28;20406;-87
2023/08/14 00:24:31;;;;;;;5.80;5.30;;;;;;;;;;5040556;28;20426;-89
2023/08/14 00:26:57;;;;;;;9.10;6.60;;;;;;;;;;5040825;28;20433;-87
2023/08/14 00:29:23;;;;;;;8.83;6.87;;;;;;;;;;5037025;28;20450;-87
2023/08/14 00:31:49;;;;;;;6.40;5.80;;;;;;;;;;5052902;28;20628;-88
2023/08/14 00:34:15;;;;;;;8.77;7.00;;;;;;;;;;5040455;28;20835;-87
2023/08/14 00:36:41;;;;;;;6.43;5.57;;;;;;;;;;5033636;28;20511;-88
2023/08/14 00:39:07;;;;;;;7.03;5.63;;;;;;;;;;5050103;28;20478;-87
2023/08/14 00:41:33;;;;;;;7.73;6.33;;;;;;;;;;5033861;28;20427;-88
2023/08/14 00:43:59;;;;;;;6.30;5.70;;;;;;;;;;5021413;28;20415;-87
2023/08/14 00:46:25;;;;;;;7.57;6.37;;;;;;;;;;5032729;28;20433;-87
2023/08/14 00:48:52;;;;;;;7.20;6.07;;;;;;;;;;5035293;28;20513;-87
2023/08/14 00:51:19;;;;;;;7.10;5.50;;;;;;;;;;5019346;28;20520;-88
2023/08/14 00:53:45;;;;;;;7.70;6.90;;;;;;;;;;5043168;28;20432;-88
2023/08/14 00:56:11;;;;;;;5.60;4.83;;;;;;;;;;5047651;28;20454;-88
2023/08/14 00:58:37;;;;;;;6.70;6.00;;;;;;;;;;5034750;28;20644;-87
2023/08/14 01:01:03;;;;;;;5.70;5.07;;;;;;;;;;5038233;28;20443;-87
2023/08/14 01:03:29;;;;;;;7.43;6.70;;;;;;;;;;5036256;28;20503;-88
2023/08/14 01:05:56;;;;;;;8.20;6.13;;;;;;;;;;5021434;28;20435;-87
2023/08/14 01:08:23;;;;;;;7.33;5.80;;;;;;;;;;5034982;28;20495;-87
2023/08/14 01:10:51;;;;;;;7.13;6.07;;;;;;;;;;5048371;28;20444;-88
2023/08/14 01:13:19;;;;;;;7.70;6.40;;;;;;;;;;5037707;28;20443;-87
2023/08/14 01:15:46;;;;;;;9.50;6.90;;;;;;;;;;5059870;28;20506;-87
2023/08/14 01:18:13;;;;;;;7.10;5.80;;;;;;;;;;5041299;28;20449;-87
2023/08/14 01:20:39;;;;;;;9.50;6.57;;;;;;;;;;5042388;28;20441;-87
2023/08/14 01:23:25;;;;;;;12.30;5.90;;;;;;;;;;5042018;28;20532;-87
2023/08/14 01:25:52;;;;;;;5.97;5.20;;;;;;;;;;5060422;28;20421;-88
2023/08/14 01:28:18;;;;;;;8.03;5.33;;;;;;;;;;5046242;28;20503;-88
2023/08/14 01:30:44;;;;;;;6.43;5.80;;;;;;;;;;5050040;28;20437;-87
2023/08/14 01:33:10;;;;;;;6.83;6.13;;;;;;;;;;5044637;28;20434;-87
2023/08/14 01:35:40;;;;;;;7.77;6.00;;;;;;;;;;5041132;28;20503;-87
2023/08/14 01:38:11;;;;;;;8.20;5.73;;;;;;;;;;5048979;28;20429;-88
2023/08/14 01:40:37;;;;;;;7.70;7.00;;;;;;;;;;5060049;28;20501;-87
2023/08/14 01:43:05;;;;;;;8.30;7.10;;;;;;;;;;5057292;28;20454;-88
2023/08/14 01:45:31;;;;;;;6.70;6.00;;;;;;;;;;5047903;28;20468;-88
2023/08/14 01:47:58;;;;;;;9.70;6.50;;;;;;;;;;5044274;28;21032;-87
2023/08/14 01:50:25;;;;;;;7.70;6.73;;;;;;;;;;5047931;28;20423;-86
2023/08/14 01:52:51;;;;;;;6.90;6.20;;;;;;;;;;5017650;28;20450;-88
2023/08/14 01:55:35;;;;;;;9.93;7.70;;;;;;;;;;5002594;28;20434;-86
2023/08/14 01:58:01;;;;;;;10.03;7.07;;;;;;;;;;5020330;28;20440;-87
2023/08/14 02:00:31;;;;;;;7.90;7.20;;;;;;;;;;5001070;28;20876;-86
2023/08/14 02:02:57;;;;;;;6.83;6.10;;;;;;;;;;5006813;28;20546;-86
2023/08/14 02:05:23;;;;;;;6.47;4.67;;;;;;;;;;5001937;28;20428;-87
2023/08/14 02:07:49;;;;;;;5.83;5.33;;;;;;;;;;5015017;28;20466;-87
2023/08/14 02:10:15;;;;;;;7.10;5.40;;;;;;;;;;5005110;28;20470;-87
2023/08/14 02:12:41;;;;;;;6.93;5.20;;;;;;;;;;4992746;28;20439;-88
2023/08/14 02:15:07;;;;;;;5.77;5.07;;;;;;;;;;5020220;28;21286;-87
2023/08/14 02:17:33;;;;;;;7.23;4.27;;;;;;;;;;5036415;28;20447;-87
2023/08/14 02:19:59;;;;;;;5.33;4.83;;;;;;;;;;5004717;28;20440;-87
2023/08/14 02:22:25;;;;;;;5.23;4.70;;;;;;;;;;5006133;28;20474;-87
2023/08/14 02:24:51;;;;;;;7.00;4.47;;;;;;;;;;5002051;28;20519;-87
2023/08/14 02:27:17;;;;;;;5.50;4.70;;;;;;;;;;5007188;28;20962;-87
2023/08/14 02:29:43;;;;;;;6.80;5.10;;;;;;;;;;5016757;28;20606;-87
2023/08/14 02:32:09;;;;;;;6.47;5.00;;;;;;;;;;5005500;28;20447;-87
2023/08/14 02:34:47;;;;;;;5.60;5.10;;;;;;;;;;5001980;28;20443;-87
2023/08/14 02:37:14;;;;;;;8.20;5.10;;;;;;;;;;5056649;28;20441;-86
2023/08/14 02:39:40;;;;;;;7.23;5.33;;;;;;;;;;5050309;28;20464;-86
2023/08/14 02:42:06;;;;;;;5.93;5.37;;;;;;;;;;5059889;28;20438;-87
2023/08/14 02:44:33;;;;;;;8.27;6.13;;;;;;;;;;5041129;28;20437;-88
2023/08/14 02:47:00;;;;;;;7.07;5.57;;;;;;;;;;5057495;28;20433;-87
2023/08/14 02:49:26;;;;;;;8.70;5.73;;;;;;;;;;5041845;28;20465;-86
2023/08/14 02:51:52;;;;;;;8.33;6.20;;;;;;;;;;5042986;28;20427;-88
2023/08/14 02:54:18;;;;;;;6.17;5.57;;;;;;;;;;5041052;28;20438;-88
2023/08/14 02:56:44;;;;;;;5.80;4.37;;;;;;;;;;5062714;28;21052;-88
2023/08/14 02:59:10;;;;;;;7.97;4.93;;;;;;;;;;5040536;28;20433;-88
2023/08/14 03:01:36;;;;;;;6.50;5.90;;;;;;;;;;5047945;28;20427;-88
2023/08/14 03:04:04;;;;;;;8.80;5.27;;;;;;;;;;5056582;28;20808;-88
2023/08/14 03:06:31;;;;;;;5.23;4.60;;;;;;;;;;5040838;28;20455;-88
2023/08/14 03:08:58;;;;;;;7.67;4.40;;;;;;;;;;5035275;28;20963;-87
2023/08/14 03:11:24;;;;;;;9.73;4.70;;;;;;;;;;5042398;28;20446;-87
2023/08/14 03:13:50;;;;;;;5.50;4.70;;;;;;;;;;5042647;28;20834;-87
2023/08/14 03:16:16;;;;;;;6.67;4.40;;;;;;;;;;5063821;28;20447;-87
2023/08/14 03:18:42;;;;;;;5.27;4.70;;;;;;;;;;5030363;28;20459;-88
2023/08/14 03:21:08;;;;;;;8.03;5.03;;;;;;;;;;5007367;28;20460;-87
2023/08/14 03:23:34;;;;;;;8.40;5.13;;;;;;;;;;5024553;28;20471;-88
2023/08/14 03:26:02;;;;;;;4.13;3.53;;;;;;;;;;5008814;28;20470;-88
2023/08/14 03:28:28;;;;;;;5.90;4.40;;;;;;;;;;5020108;28;20520;-89
2023/08/14 03:31:09;;;;;;;5.50;4.40;;;;;;;;;;5024972;28;20510;-87
2023/08/14 03:33:35;;;;;;;5.40;4.57;;;;;;;;;;5022240;28;20455;-89
2023/08/14 03:36:01;;;;;;;5.73;4.20;;;;;;;;;;5003088;28;20435;-88
2023/08/14 03:38:27;;;;;;;5.53;4.73;;;;;;;;;;5017875;28;20435;-90
2023/08/14 03:40:53;;;;;;;5.20;4.70;;;;;;;;;;5015611;28;20443;-89
2023/08/14 03:43:19;;;;;;;4.53;4.00;;;;;;;;;;5008784;28;20447;-88
2023/08/14 03:45:45;;;;;;;10.40;5.43;;;;;;;;;;5011872;28;20481;-89
2023/08/14 03:48:11;;;;;;;7.70;4.67;;;;;;;;;;5026616;28;20459;-87
2023/08/14 03:50:37;;;;;;;6.03;5.40;;;;;;;;;;5055951;28;20422;-86
2023/08/14 03:53:03;;;;;;;7.80;5.37;;;;;;;;;;5060328;28;20457;-88
2023/08/14 03:55:29;;;;;;;6.03;4.80;;;;;;;;;;5041435;28;20457;-89
2023/08/14 03:57:56;;;;;;;4.97;4.50;;;;;;;;;;5042372;28;20430;-88
2023/08/14 04:00:22;;;;;;;7.55;5.45;;;;;;;;;;5042734;28;20461;-89
2023/08/14 04:02:48;;;;;;;7.60;5.27;;;;;;;;;;5039135;28;20183;-89
2023/08/14 04:05:14;;;;;;;7.17;6.40;;;;;;;;;;5035454;28;22184;-89
2023/08/14 04:07:43;;;;;;;5.60;5.00;;;;;;;;;;5046796;28;20801;-89
2023/08/14 04:10:10;;;;;;;5.80;4.80;;;;;;;;;;5043391;28;20483;-89
2023/08/14 04:12:36;;;;;;;6.53;5.77;;;;;;;;;;5043897;28;20429;-89
2023/08/14 04:15:15;;;;;;;9.50;5.17;;;;;;;;;;5044748;28;20450;-89
2023/08/14 04:17:41;;;;;;;6.63;4.90;;;;;;;;;;5041976;28;20433;-89
2023/08/14 04:20:09;;;;;;;5.20;4.70;;;;;;;;;;5056225;28;20427;-88
2023/08/14 04:22:35;;;;;;;5.93;5.00;;;;;;;;;;5081881;28;21011;-89
2023/08/14 04:25:01;;;;;;;5.00;4.47;;;;;;;;;;5045532;28;20421;-89
2023/08/14 04:27:28;;;;;;;6.83;4.87;;;;;;;;;;5048913;28;20398;-89
2023/08/14 04:29:54;;;;;;;7.90;4.40;;;;;;;;;;5039516;28;20484;-89
2023/08/14 04:32:20;;;;;;;6.20;4.80;;;;;;;;;;5048876;28;20456;-88
2023/08/14 04:34:46;;;;;;;7.43;5.03;;;;;;;;;;5047372;28;20446;-90
2023/08/14 04:37:12;;;;;;;5.90;4.73;;;;;;;;;;5044704;28;20445;-89
2023/08/14 04:39:38;;;;;;;4.67;3.53;;;;;;;;;;5042347;28;20414;-87
2023/08/14 04:42:04;;;;;;;5.77;3.70;;;;;;;;;;5043773;28;20457;-87
2023/08/14 04:44:30;;;;;;;5.60;3.77;;;;;;;;;;5043250;28;20469;-87
2023/08/14 04:46:56;;;;;;;5.30;4.13;;;;;;;;;;5042579;28;20484;-88
2023/08/14 04:49:22;;;;;;;4.67;3.50;;;;;;;;;;5048254;28;20462;-88
2023/08/14 04:51:48;;;;;;;6.60;4.17;;;;;;;;;;5059513;28;20434;-89
2023/08/14 04:54:14;;;;;;;4.73;4.17;;;;;;;;;;5044911;28;20513;-89
2023/08/14 04:56:40;;;;;;;4.97;4.20;;;;;;;;;;5045017;28;20460;-89
2023/08/14 04:59:08;;;;;;;5.73;3.70;;;;;;;;;;5047552;28;20968;-89
2023/08/14 05:01:34;;;;;;;5.93;4.07;;;;;;;;;;5046154;28;20438;-89
2023/08/14 05:04:11;;;;;;;6.43;3.80;;;;;;;;;;5056457;28;20447;-89
2023/08/14 05:06:37;;;;;;;5.90;3.13;;;;;;;;;;5036244;28;20518;-90
2023/08/14 05:09:05;;;;;;;3.57;2.70;;;;;;;;;;5007427;28;20492;-87
2023/08/14 05:11:31;;;;;;;3.47;3.07;;;;;;;;;;4993650;28;20455;-89
2023/08/14 05:13:57;;;;;;;4.37;3.10;;;;;;;;;;5007126;28;20436;-88
2023/08/14 05:16:23;;;;;;;3.23;2.87;;;;;;;;;;4991647;28;20444;-88
2023/08/14 05:18:49;;;;;;;3.33;2.70;;;;;;;;;;4992701;28;20443;-89
2023/08/14 05:21:15;;;;;;;4.07;3.30;;;;;;;;;;4985052;28;20453;-88
2023/08/14 05:23:41;;;;;;;6.03;3.67;;;;;;;;;;4990207;28;20487;-88
2023/08/14 05:26:07;;;;;;;3.93;3.17;;;;;;;;;;4986321;28;20440;-88
2023/08/14 05:28:33;;;;;;;5.17;3.40;;;;;;;;;;4983494;28;20884;-88
2023/08/14 05:30:59;;;;;;;4.47;3.60;;;;;;;;;;4989827;28;20457;-89
2023/08/14 05:33:26;;;;;;;5.53;2.87;;;;;;;;;;4993715;28;20433;-88
2023/08/14 05:35:52;;;;;;;5.80;3.00;;;;;;;;;;4990630;28;20416;-88
2023/08/14 05:38:18;;;;;;;6.83;3.27;;;;;;;;;;5052966;28;20459;-89
2023/08/14 05:40:44;;;;;;;3.10;2.60;;;;;;;;;;5058060;28;20433;-88
2023/08/14 05:43:10;;;;;;;3.50;3.20;;;;;;;;;;5048050;28;20516;-87
2023/08/14 05:45:36;;;;;;;3.90;2.87;;;;;;;;;;5040172;28;20842;-88
2023/08/14 05:48:02;;;;;;;4.27;2.70;;;;;;;;;;5077741;28;20542;-89
2023/08/14 05:50:29;;;;;;;6.30;2.77;;;;;;;;;;5051929;28;20441;-89
2023/08/14 05:53:04;;;;;;;5.40;3.30;;;;;;;;;;5043515;28;20441;-90
2023/08/14 05:55:40;;;;;;;3.30;3.00;;;;;;;;;;5055854;28;20503;-89
2023/08/14 05:58:06;;;;;;;4.80;2.77;;;;;;;;;;5039483;28;20441;-88
2023/08/14 06:00:32;;;;;;;3.37;2.97;;;;;;;;;;5059301;28;20425;-88
2023/08/14 06:02:58;;;;;;;2.93;2.60;;;;;;;;;;5044689;28;20434;-87
2023/08/14 06:05:24;;;;;;;5.57;3.70;;;;;;;;;;5058047;28;20518;-88
2023/08/14 06:07:52;;;;;;;3.40;3.10;;;;;;;;;;5062942;28;20496;-87
2023/08/14 06:10:18;;;;;;;3.13;2.73;;;;;;;;;;5048375;28;20407;-88
2023/08/14 06:12:44;;;;;;;5.80;3.80;;;;;;;;;;5030494;28;20430;-87
2023/08/14 06:15:10;;;;;;;4.10;3.50;;;;;;;;;;5031892;28;20921;-87
2023/08/14 06:17:37;;;;;;;4.20;3.57;;;;;;;;;;5060588;28;20470;-87
2023/08/14 06:20:04;;;;;;;4.60;4.07;;;;;;;;;;5046027;28;20967;-87
2023/08/14 06:22:30;;;;;;;5.83;4.03;;;;;;;;;;5037862;28;20425;-88
2023/08/14 06:24:56;;;;;;;6.17;3.67;;;;;;;;;;5032717;28;20437;-88
2023/08/14 06:27:22;;;;;;;4.07;3.77;;;;;;;;;;5041395;28;20487;-87
2023/08/14 06:29:48;;;;;;;5.07;3.80;;;;;;;;;;5036671;28;20464;-88
2023/08/14 06:32:14;;;;;;;4.37;3.97;;;;;;;;;;5039261;28;21136;-88
2023/08/14 06:34:41;;;;;;;4.37;3.97;;;;;;;;;;5045361;28;20429;-88
2023/08/14 06:37:07;;;;;;;6.80;4.50;;;;;;;;;;5041065;28;20462;-86
2023/08/14 06:39:33;;;;;;;5.33;3.80;;;;;;;;;;5037897;28;20426;-88
2023/08/14 06:41:59;;;;;;;4.90;4.03;;;;;;;;;;5063324;28;20493;-87
2023/08/14 06:44:25;;;;;;;5.60;4.27;;;;;;;;;;5040188;28;20845;-88
2023/08/14 06:46:51;;;;;;;4.50;3.57;;;;;;;;;;5040870;28;20437;-87
2023/08/14 06:49:17;;;;;;;5.13;4.10;;;;;;;;;;5039337;28;20500;-89
2023/08/14 06:51:43;;;;;;;4.47;4.07;;;;;;;;;;5045237;28;20495;-86
2023/08/14 06:54:09;;;;;;;6.17;4.80;;;;;;;;;;5039677;28;20433;-88
2023/08/14 06:56:35;;;;;;;4.37;3.77;;;;;;;;;;5054321;28;20406;-88
2023/08/14 06:59:01;;;;;;;5.10;4.47;;;;;;;;;;5045213;28;20446;-87
2023/08/14 07:01:31;;;;;;;5.33;4.10;;;;;;;;;;5043308;28;20425;-87
2023/08/14 07:04:06;;;;;;;4.53;3.67;;;;;;;;;;5054350;28;20434;-89
2023/08/14 07:06:32;;;;;;;5.00;3.77;;;;;;;;;;5053916;28;20555;-86
2023/08/14 07:08:58;;;;;;;4.90;4.40;;;;;;;;;;5056397;28;20465;-89
2023/08/14 07:11:46;;;;;;;6.93;4.30;;;;;;;;;;5038811;28;20410;-88
2023/08/14 07:14:12;;;;;;;4.50;4.10;;;;;;;;;;5037466;28;20421;-88
2023/08/14 07:16:38;;;;;;;6.70;4.00;;;;;;;;;;5063181;28;20471;-86
2023/08/14 07:19:04;;;;;;;10.20;3.93;;;;;;;;;;5043449;28;20503;-87
2023/08/14 07:21:31;;;;;;;4.47;4.03;;;;;;;;;;5033235;28;20437;-87
2023/08/14 07:23:57;;;;;;;3.90;3.60;;;;;;;;;;5038394;28;21713;-87
2023/08/14 07:26:23;;;;;;;4.43;4.03;;;;;;;;;;5051512;28;20433;-87
2023/08/14 07:28:52;;;;;;;3.37;3.07;;;;;;;;;;5037311;28;20527;-87
2023/08/14 07:31:18;;;;;;;3.80;3.40;;;;;;;;;;5038643;28;20489;-87
2023/08/14 07:33:44;;;;;;;3.30;3.00;;;;;;;;;;5035605;28;20425;-87
2023/08/14 07:36:10;;;;;;;6.67;3.77;;;;;;;;;;4994377;28;20438;-88
2023/08/14 07:38:36;;;;;;;4.50;3.07;;;;;;;;;;4992824;28;20531;-87
2023/08/14 07:41:02;;;;;;;6.33;3.60;;;;;;;;;;5015014;28;20432;-87
2023/08/14 07:43:28;;;;;;;6.77;4.30;;;;;;;;;;4998615;28;20582;-87
2023/08/14 07:45:54;;;;;;;3.60;3.10;;;;;;;;;;4998438;28;20452;-87
2023/08/14 07:48:20;;;;;;;6.53;3.53;;;;;;;;;;5013561;28;20471;-87
2023/08/14 07:50:52;;;;;;;4.93;3.70;;;;;;;;;;4995429;28;20459;-87
2023/08/14 07:53:18;;;;;;;5.37;3.30;;;;;;;;;;5015369;28;20440;-87
2023/08/14 07:55:44;;;;;;;5.80;3.20;;;;;;;;;;5003287;28;20459;-87
2023/08/14 07:58:10;;;;;;;3.53;3.03;;;;;;;;;;4997528;28;20440;-87
2023/08/14 08:00:36;;;;;;;3.70;2.97;;;;;;;;;;5000380;28;20527;-87
2023/08/14 08:03:02;;;;;;;4.10;3.17;;;;;;;;;;4995320;28;20853;-86
2023/08/14 08:05:28;;;;;;;2.90;2.53;;;;;;;;;;5034244;28;20421;-86
2023/08/14 08:07:54;;;;;;;4.37;3.17;;;;;;;;;;5060684;28;20430;-87
2023/08/14 08:10:20;;;;;;;4.10;3.40;;;;;;;;;;5056742;28;20438;-88
2023/08/14 08:12:46;;;;;;;2.50;2.30;;;;;;;;;;5044062;28;20435;-88
2023/08/14 08:15:13;;;;;;;4.90;3.03;;;;;;;;;;5043428;28;20426;-88
2023/08/14 08:17:39;;;;;;;4.60;2.40;;;;;;;;;;5035117;28;20427;-88
2023/08/14 08:20:05;;;;;;;4.50;2.93;;;;;;;;;;5064456;28;20425;-87
2023/08/14 08:22:32;;;;;;;3.40;3.10;;;;;;;;;;5090225;28;20433;-87
2023/08/14 08:24:58;;;;;;;4.77;2.77;;;;;;;;;;5062532;28;20789;-86
2023/08/14 08:27:24;;;;;;;3.30;2.83;;;;;;;;;;5044969;28;20508;-88
2023/08/14 08:29:50;;;;;;;3.10;2.80;;;;;;;;;;5043686;28;20465;-88
2023/08/14 08:32:16;;;;;;;5.03;2.97;;;;;;;;;;5033346;28;20418;-87
2023/08/14 08:34:42;;;;;;;4.20;3.10;;;;;;;;;;5041916;28;20450;-88
2023/08/14 08:37:08;;;;;;;2.60;1.87;;;;;;;;;;5053341;28;20437;-88
2023/08/14 08:39:34;;;;;;;3.53;2.60;;;;;;;;;;5043859;28;20441;-87
2023/08/14 08:42:00;;;;;;;2.57;2.37;;;;;;;;;;5042953;28;20428;-87
2023/08/14 08:44:26;;;;;;;3.73;3.33;;;;;;;;;;5049379;28;20419;-86
2023/08/14 08:46:53;;;;;;;4.53;2.60;;;;;;;;;;5045369;28;20781;-87
2023/08/14 08:49:19;;;;;;;3.10;2.80;;;;;;;;;;5055891;28;20972;-87
2023/08/14 08:51:45;;;;;;;4.27;3.10;;;;;;;;;;5054679;28;20422;-87
2023/08/14 08:54:14;;;;;;;4.13;3.70;;;;;;;;;;5037711;28;20411;-87
2023/08/14 08:56:40;;;;;;;4.80;3.77;;;;;;;;;;5046679;28;20418;-87
2023/08/14 08:59:06;;;;;;;5.53;4.93;;;;;;;;;;5046197;28;20850;-87
2023/08/14 09:01:32;;;;;;;3.70;3.30;;;;;;;;;;5038335;28;20424;-86
2023/08/14 09:03:59;;;;;;;4.37;3.10;;;;;;;;;;5060777;28;20430;-86
2023/08/14 09:06:25;;;;;;;3.97;3.10;;;;;;;;;;5042689;28;21135;-87
2023/08/14 09:08:51;;;;;;;6.50;3.60;;;;;;;;;;5045028;28;20570;-88
2023/08/14 09:11:17;;;;;;;4.83;3.70;;;;;;;;;;5036871;28;20594;-88
2023/08/14 09:13:43;;;;;;;4.17;3.77;;;;;;;;;;5051519;28;20433;-87
2023/08/14 09:16:09;;;;;;;3.53;2.90;;;;;;;;;;5060311;28;20506;-88
2023/08/14 09:18:35;;;;;;;3.80;3.10;;;;;;;;;;5064470;28;20430;-90
2023/08/14 09:21:03;;;;;;;4.60;3.70;;;;;;;;;;5044493;28;20479;-88
2023/08/14 09:23:37;;;;;;;4.07;3.50;;;;;;;;;;5046988;28;20534;-87
2023/08/14 09:26:03;;;;;;;4.27;3.30;;;;;;;;;;5044403;28;20430;-88
2023/08/14 09:28:29;;;;;;;5.20;3.70;;;;;;;;;;5045950;28;20441;-87
2023/08/14 09:31:05;;;;;;;4.17;3.70;;;;;;;;;;5026946;28;20435;-88
2023/08/14 09:33:31;;;;;;;5.03;3.80;;;;;;;;;;5033703;28;20425;-88
2023/08/14 09:35:57;;;;;;;4.83;3.57;;;;;;;;;;5022522;28;20493;-87
2023/08/14 09:38:23;;;;;;;4.07;3.70;;;;;;;;;;5041070;28;20446;-88
2023/08/14 09:40:49;;;;;;;4.33;3.70;;;;;;;;;;5033726;28;20435;-87
2023/08/14 09:43:15;;;;;;;5.27;3.60;;;;;;;;;;5041593;28;20455;-87
2023/08/14 09:45:41;;;;;;;5.10;3.90;;;;;;;;;;5031816;28;20912;-89
2023/08/14 09:48:08;;;;;;;4.70;4.03;;;;;;;;;;5032835;28;20469;-88
2023/08/14 09:50:35;;;;;;;5.00;4.30;;;;;;;;;;5035190;28;20436;-87
2023/08/14 09:53:01;;;;;;;6.63;3.93;;;;;;;;;;5033283;28;20446;-88
2023/08/14 09:55:27;;;;;;;6.60;3.90;;;;;;;;;;5038479;28;20525;-87
2023/08/14 09:57:53;;;;;;;4.87;4.37;;;;;;;;;;5060714;28;20412;-88
2023/08/14 10:00:19;;;;;;;7.17;4.50;;;;;;;;;;5041352;28;20445;-89
2023/08/14 10:02:47;;;;;;;5.43;4.93;;;;;;;;;;5040779;28;20519;-87
2023/08/14 10:05:13;;;;;;;4.10;3.70;;;;;;;;;;5045851;28;21010;-89
2023/08/14 10:07:39;;;;;;;4.60;3.50;;;;;;;;;;5042092;28;20499;-86
2023/08/14 10:10:06;;;;;;;5.03;4.30;;;;;;;;;;5052239;28;20500;-87
2023/08/14 10:12:33;;;;;;;4.67;4.20;;;;;;;;;;5046505;28;20421;-87
2023/08/14 10:15:10;;;;;;;9.13;5.10;;;;;;;;;;5041097;28;20967;-87
2023/08/14 10:17:39;;;;;;;8.00;3.97;;;;;;;;;;5042039;28;20432;-86
2023/08/14 10:20:05;;;;;;;8.77;4.33;;;;;;;;;;5043983;28;20426;-87
2023/08/14 10:22:33;;;;;;;4.30;3.90;;;;;;;;;;5043667;28;20478;-87
2023/08/14 10:25:04;;;;;;;5.30;4.80;;;;;;;;;;5040743;28;20785;-88
2023/08/14 10:27:31;;;;;;;4.37;3.87;;;;;;;;;;5011427;28;20436;-86
2023/08/14 10:30:01;;;;;;;4.60;4.20;;;;;;;;;;4990184;28;20454;-86
2023/08/14 10:32:27;;;;;;;4.83;4.33;;;;;;;;;;4984143;28;20425;-87
2023/08/14 10:34:53;;;;;;;7.97;4.37;;;;;;;;;;4976845;28;20462;-87
2023/08/14 10:37:26;;;;;;;6.53;4.60;;;;;;;;;;4962202;28;20494;-89
2023/08/14 10:39:55;;;;;;;4.37;3.97;;;;;;;;;;4970754;28;20445;-87
2023/08/14 10:42:21;;;;;;;5.40;4.33;;;;;;;;;;4986654;28;20441;-88
2023/08/14 10:44:47;;;;;;;4.60;3.90;;;;;;;;;;4956646;28;20462;-88
2023/08/14 10:47:13;;;;;;;4.40;4.00;;;;;;;;;;4957600;28;20486;-88
2023/08/14 10:49:51;;;;;;;5.13;4.30;;;;;;;;;;4945679;28;20462;-86
2023/08/14 10:52:19;;;;;;;4.23;3.93;;;;;;;;;;4957075;28;20508;-88
2023/08/14 10:54:45;;;;;;;5.20;4.70;;;;;;;;;;4977425;28;20872;-87
2023/08/14 10:57:12;;;;;;;4.40;4.00;;;;;;;;;;4970761;28;20449;-88
2023/08/14 10:59:39;;;;;;;5.13;3.83;;;;;;;;;;5017660;28;20424;-87
2023/08/14 11:02:05;;;;;;;4.63;4.23;;;;;;;;;;5014629;28;20522;-88
2023/08/14 11:04:32;;;;;;;7.10;4.70;;;;;;;;;;5039357;28;20439;-86
2023/08/14 11:06:58;;;;;;;4.60;4.20;;;;;;;;;;5048538;28;20438;-88
2023/08/14 11:12:01;;;;;;;4.80;4.40;;;;;;;;;;5076624;28;20866;-88
2023/08/14 11:14:27;;;;;;;5.40;4.40;;;;;;;;;;5039808;28;20457;-89
2023/08/14 11:16:53;;;;;;;4.60;4.20;;;;;;;;;;5070862;28;21026;-88
2023/08/14 11:19:19;;;;;;;6.57;4.47;;;;;;;;;;5064960;28;20467;-89
2023/08/14 11:21:51;;;;;;;6.63;4.20;;;;;;;;;;5037375;28;20521;-87
2023/08/14 11:24:17;;;;;;;6.00;4.33;;;;;;;;;;5063922;28;20984;-87
2023/08/14 11:26:45;;;;;;;4.90;4.40;;;;;;;;;;5039083;28;20446;-88
2023/08/14 11:29:11;;;;;;;5.10;4.40;;;;;;;;;;5039927;28;20462;-88
2023/08/14 11:31:37;;;;;;;5.30;4.37;;;;;;;;;;5063227;28;20433;-88
2023/08/14 11:34:03;;;;;;;4.63;3.93;;;;;;;;;;5051219;28;20426;-89
2023/08/14 11:36:29;;;;;;;12.70;6.03;;;;;;;;;;5057100;28;20509;-89
2023/08/14 11:38:55;;;;;;;5.30;4.43;;;;;;;;;;5055492;28;20442;-87
2023/08/14 11:41:21;;;;;;;5.03;4.60;;;;;;;;;;5043888;28;20448;-88
2023/08/14 11:43:47;;;;;;;4.33;3.93;;;;;;;;;;5031641;28;20430;-88
2023/08/14 11:46:16;;;;;;;4.60;4.20;;;;;;;;;;5038521;28;20433;-87
2023/08/14 11:48:45;;;;;;;5.43;4.50;;;;;;;;;;5047580;28;20456;-90
2023/08/14 11:51:11;;;;;;;7.40;3.87;;;;;;;;;;5046830;28;20441;-88
2023/08/14 11:53:38;;;;;;;4.30;4.00;;;;;;;;;;5073943;28;20453;-88
2023/08/14 11:56:04;;;;;;;4.90;4.20;;;;;;;;;;5049503;28;20456;-87
2023/08/14 11:58:32;;;;;;;4.43;4.03;;;;;;;;;;5054305;28;20482;-88
2023/08/14 12:00:58;;;;;;;4.50;4.10;;;;;;;;;;4995872;28;20429;-88
2023/08/14 12:03:24;;;;;;;4.63;3.80;;;;;;;;;;4987630;28;20444;-89
2023/08/14 12:05:50;;;;;;;10.23;4.00;;;;;;;;;;4955630;28;20979;-88
2023/08/14 12:08:17;;;;;;;6.40;4.23;;;;;;;;;;4960220;28;20457;-89
2023/08/14 12:10:43;;;;;;;4.43;4.00;;;;;;;;;;4955590;28;20442;-89
2023/08/14 12:13:22;;;;;;;4.70;4.23;;;;;;;;;;4962444;28;20898;-89
2023/08/14 12:15:48;;;;;;;5.37;4.87;;;;;;;;;;4960645;28;20579;-89
2023/08/14 12:18:21;;;;;;;5.10;4.43;;;;;;;;;;4954072;28;20422;-89
2023/08/14 12:20:56;;;;;;;4.00;3.70;;;;;;;;;;4957626;28;20945;-89
2023/08/14 12:23:22;;;;;;;6.63;4.07;;;;;;;;;;4949709;28;20921;-89
2023/08/14 12:25:49;;;;;;;6.50;3.73;;;;;;;;;;4965681;28;20434;-89
2023/08/14 12:28:18;;;;;;;3.97;3.57;;;;;;;;;;4966548;28;20671;-89
2023/08/14 12:30:49;;;;;;;5.50;4.00;;;;;;;;;;4934585;28;20422;-90
2023/08/14 12:33:15;;;;;;;4.50;4.10;;;;;;;;;;4950287;28;20487;-88
2023/08/14 12:35:41;;;;;;;5.93;5.30;;;;;;;;;;4949774;28;20609;-90
2023/08/14 12:38:11;;;;;;;7.23;4.43;;;;;;;;;;4983629;28;20437;-91
2023/08/14 12:40:37;;;;;;;6.60;4.57;;;;;;;;;;4984547;28;20990;-91
2023/08/14 12:43:03;;;;;;;8.77;4.60;;;;;;;;;;4991972;28;20455;-92
2023/08/14 12:45:29;;;;;;;6.47;4.50;;;;;;;;;;5048290;28;20430;-89
2023/08/14 12:47:58;;;;;;;6.07;4.50;;;;;;;;;;5044450;28;20442;-90
2023/08/14 12:50:24;;;;;;;6.17;4.87;;;;;;;;;;5020795;28;20503;-90
2023/08/14 12:52:50;;;;;;;7.73;4.60;;;;;;;;;;5021198;28;20451;-90
2023/08/14 12:55:16;;;;;;;7.63;4.93;;;;;;;;;;5025608;28;20438;-90
2023/08/14 12:57:42;;;;;;;6.40;4.43;;;;;;;;;;5023068;28;20935;-90
2023/08/14 13:00:08;;;;;;;6.90;4.03;;;;;;;;;;5030697;28;20433;-90
2023/08/14 13:02:35;;;;;;;5.07;3.80;;;;;;;;;;5023920;28;20431;-89
2023/08/14 13:05:04;;;;;;;4.13;3.50;;;;;;;;;;5028183;28;20981;-91
2023/08/14 13:07:30;;;;;;;5.37;3.73;;;;;;;;;;5022806;28;20458;-88
2023/08/14 13:09:56;;;;;;;4.80;4.07;;;;;;;;;;5026911;28;20550;-88
2023/08/14 13:12:22;;;;;;;4.53;3.70;;;;;;;;;;5024487;28;20899;-90
2023/08/14 13:14:49;;;;;;;4.10;3.60;;;;;;;;;;5024478;28;20447;-89
2023/08/14 13:17:15;;;;;;;4.60;4.17;;;;;;;;;;4995267;28;20425;-90
2023/08/14 13:19:41;;;;;;;4.80;3.50;;;;;;;;;;5041294;28;20415;-89
2023/08/14 13:22:07;;;;;;;4.20;3.43;;;;;;;;;;5041264;28;20455;-90
2023/08/14 13:24:34;;;;;;;4.10;3.63;;;;;;;;;;5050005;28;20426;-89
2023/08/14 13:26:59;;;;;;;5.00;3.60;;;;;;;;;;5065566;28;20418;-90
2023/08/14 13:29:26;;;;;;;6.20;3.63;;;;;;;;;;5048185;28;20467;-90
2023/08/14 13:31:53;;;;;;;3.80;3.40;;;;;;;;;;5050165;28;20437;-90
2023/08/14 13:34:19;;;;;;;4.93;3.77;;;;;;;;;;5055315;28;20806;-90
2023/08/14 13:36:45;;;;;;;5.30;4.00;;;;;;;;;;5050532;28;20418;-91
2023/08/14 13:39:11;;;;;;;5.93;3.47;;;;;;;;;;5041724;28;20428;-91
2023/08/14 13:41:37;;;;;;;6.20;3.90;;;;;;;;;;5050113;28;20437;-90
2023/08/14 13:44:03;;;;;;;4.87;3.87;;;;;;;;;;5040551;28;20442;-92
2023/08/14 13:46:29;;;;;;;4.97;3.33;;;;;;;;;;5052520;28;20405;-91
2023/08/14 13:48:56;;;;;;;6.10;3.73;;;;;;;;;;5060563;28;20437;-91
2023/08/14 13:51:24;;;;;;;4.00;3.60;;;;;;;;;;5054919;28;20426;-92
2023/08/14 13:53:50;;;;;;;5.03;3.90;;;;;;;;;;5064754;28;20483;-92
2023/08/14 13:56:16;;;;;;;4.13;3.50;;;;;;;;;;5048143;28;20433;-92
2023/08/14 13:58:42;;;;;;;5.30;3.47;;;;;;;;;;5051446;28;20442;-92
2023/08/14 14:01:08;;;;;;;4.47;3.70;;;;;;;;;;5036080;28;20438;-92
2023/08/14 14:03:34;;;;;;;4.80;4.13;;;;;;;;;;5052925;28;20472;-90
2023/08/14 14:06:01;;;;;;;5.90;3.57;;;;;;;;;;5043342;28;20455;-91
2023/08/14 14:08:26;;;;;;;4.30;3.83;;;;;;;;;;5028309;28;20471;-91
2023/08/14 14:10:53;;;;;;;4.57;3.87;;;;;;;;;;5019950;28;20503;-90
2023/08/14 14:13:19;;;;;;;5.20;4.00;;;;;;;;;;5025597;28;20449;-91
2023/08/14 14:15:45;;;;;;;4.37;3.97;;;;;;;;;;5023749;28;20455;-91
2023/08/14 14:18:11;;;;;;;4.63;4.23;;;;;;;;;;5009312;28;20423;-90
2023/08/14 14:20:38;;;;;;;4.60;4.07;;;;;;;;;;5025947;28;20506;-90
2023/08/14 14:23:04;;;;;;;5.43;4.30;;;;;;;;;;5022690;28;20461;-90
2023/08/14 14:25:33;;;;;;;4.80;4.27;;;;;;;;;;5041423;28;20914;-91
2023/08/14 14:27:59;;;;;;;5.43;3.80;;;;;;;;;;5042964;28;20435;-90
2023/08/14 14:30:25;;;;;;;5.43;4.57;;;;;;;;;;5017474;28;20578;-90
2023/08/14 14:32:51;;;;;;;4.60;3.90;;;;;;;;;;5027445;28;20439;-90
2023/08/14 14:35:18;;;;;;;5.90;3.60;;;;;;;;;;5036431;28;20470;-90
2023/08/14 14:37:48;;;;;;;4.43;4.03;;;;;;;;;;5041986;28;20449;-89
2023/08/14 14:40:16;;;;;;;4.50;4.07;;;;;;;;;;5094605;28;20475;-91
2023/08/14 14:42:42;;;;;;;5.53;4.30;;;;;;;;;;5055634;28;20418;-91